createdAt,value
2022-11-16T00:00:10.632Z,10.13
2022-11-16T00:03:14.310Z,10.19
2022-11-16T00:06:18.534Z,10.19
2022-11-16T00:09:27.086Z,10.21
2022-11-16T00:12:30.817Z,10.26
2022-11-16T00:15:35.772Z,10.31
2022-11-16T00:18:39.234Z,10.30
2022-11-16T00:21:42.891Z,10.29
2022-11-16T00:24:46.454Z,10.25
2022-11-16T00:27:49.974Z,10.24
2022-11-16T00:31:01.582Z,10.19
2022-11-16T00:34:05.245Z,10.20
2022-11-16T00:37:08.770Z,10.15
2022-11-16T00:40:14.129Z,10.15
2022-11-16T00:43:17.883Z,10.16
2022-11-16T00:46:23.164Z,10.09
2022-11-16T00:49:26.748Z,10.03
2022-11-16T00:52:30.346Z,10.06
2022-11-16T00:55:35.099Z,10.08
2022-11-16T00:58:38.702Z,10.05
2022-11-16T01:01:43.912Z,9.95
2022-11-16T01:04:48.108Z,9.95
2022-11-16T01:07:52.849Z,9.92
2022-11-16T01:11:16.465Z,9.93
2022-11-16T01:14:20.027Z,9.90
2022-11-16T01:17:25.027Z,9.82
2022-11-16T01:20:30.770Z,9.81
2022-11-16T01:23:34.403Z,9.78
2022-11-16T01:26:37.952Z,9.76
2022-11-16T01:29:41.673Z,9.73
2022-11-16T01:32:46.738Z,9.73
2022-11-16T01:35:50.569Z,9.74
2022-11-16T01:38:54.212Z,9.74
2022-11-16T01:41:57.897Z,9.72
2022-11-16T01:45:07.494Z,9.70
2022-11-16T01:48:17.366Z,9.70
2022-11-16T01:51:22.209Z,9.66
2022-11-16T01:54:26.068Z,9.60
2022-11-16T01:57:35.418Z,9.64
2022-11-16T02:00:39.162Z,9.65
2022-11-16T02:03:44.138Z,9.60
2022-11-16T02:07:03.988Z,9.62
2022-11-16T02:10:25.403Z,9.59
2022-11-16T02:13:43.543Z,9.55
2022-11-16T02:16:59.204Z,9.50
2022-11-16T02:20:48.888Z,9.56
2022-11-16T02:24:36.361Z,9.48
2022-11-16T02:28:21.982Z,9.48
2022-11-16T02:31:35.108Z,9.46
2022-11-16T02:34:45.640Z,9.51
2022-11-16T02:38:01.120Z,9.49
2022-11-16T02:41:11.300Z,9.47
2022-11-16T02:44:21.150Z,9.46
2022-11-16T02:47:31.716Z,9.48
2022-11-16T02:50:38.087Z,9.43
2022-11-16T02:54:03.257Z,9.46
2022-11-16T02:57:45.281Z,9.37
2022-11-16T03:00:59.265Z,9.25
2022-11-16T03:04:14.186Z,9.17
2022-11-16T03:07:24.883Z,9.07
2022-11-16T03:10:46.226Z,8.93
2022-11-16T03:13:52.002Z,8.82
2022-11-16T03:16:59.415Z,8.72
2022-11-16T03:20:10.941Z,8.65
2022-11-16T03:23:15.609Z,8.59
2022-11-16T03:26:27.514Z,8.55
2022-11-16T03:29:36.585Z,8.53
2022-11-16T03:32:49.560Z,8.53
2022-11-16T03:36:04.778Z,8.46
2022-11-16T03:39:17.155Z,8.41
2022-11-16T03:42:24.490Z,8.38
2022-11-16T03:45:29.422Z,8.34
2022-11-16T03:48:37.126Z,8.31
2022-11-16T03:51:42.898Z,8.24
2022-11-16T03:54:46.481Z,8.21
2022-11-16T03:57:50.015Z,8.19
2022-11-16T04:00:54.314Z,8.16
2022-11-16T04:03:58.043Z,8.09
2022-11-16T04:07:20.587Z,8.06
2022-11-16T04:10:41.770Z,8.03
2022-11-16T04:14:08.015Z,8.01
2022-11-16T04:17:31.753Z,7.97
2022-11-16T04:20:52.762Z,7.92
2022-11-16T04:24:16.007Z,7.90
2022-11-16T04:27:43.978Z,7.88
2022-11-16T04:31:09.271Z,7.80
2022-11-16T04:34:41.691Z,7.77
2022-11-16T04:37:52.685Z,7.73
2022-11-16T04:40:57.715Z,7.71
2022-11-16T04:44:01.302Z,7.67
2022-11-16T04:47:06.766Z,7.66
2022-11-16T04:50:11.452Z,7.64
2022-11-16T04:53:15.898Z,7.61
2022-11-16T04:56:20.847Z,7.60
2022-11-16T04:59:24.428Z,7.55
2022-11-16T05:02:28.062Z,7.49
2022-11-16T05:05:31.579Z,7.48
2022-11-16T05:08:35.380Z,7.43
2022-11-16T05:11:40.619Z,7.39
2022-11-16T05:14:44.699Z,7.38
2022-11-16T05:17:48.400Z,7.34
2022-11-16T05:21:02.850Z,7.29
2022-11-16T05:24:24.800Z,7.27
2022-11-16T05:27:41.544Z,7.26
2022-11-16T05:30:47.144Z,7.20
2022-11-16T05:33:50.831Z,7.18
2022-11-16T05:36:55.096Z,7.17
2022-11-16T05:39:58.818Z,7.19
2022-11-16T05:43:03.742Z,7.15
2022-11-16T05:46:07.723Z,7.16
2022-11-16T05:49:12.129Z,7.19
2022-11-16T05:52:15.782Z,7.16
2022-11-16T05:55:19.376Z,7.17
2022-11-16T05:58:24.460Z,7.18
2022-11-16T06:01:28.469Z,7.18
2022-11-16T06:04:32.107Z,7.16
2022-11-16T06:07:35.683Z,7.18
2022-11-16T06:10:39.448Z,7.20
2022-11-16T06:13:44.497Z,7.20
2022-11-16T06:16:48.129Z,7.20
2022-11-16T06:19:51.646Z,7.20
2022-11-16T06:22:55.266Z,7.22
2022-11-16T06:25:59.015Z,7.20
2022-11-16T06:29:04.714Z,7.15
2022-11-16T06:32:08.258Z,7.15
2022-11-16T06:35:12.119Z,7.14
2022-11-16T06:38:18.718Z,7.11
2022-11-16T06:41:22.967Z,7.10
2022-11-16T06:44:27.910Z,7.09
2022-11-16T06:47:31.594Z,7.08
2022-11-16T06:50:35.227Z,7.05
2022-11-16T06:53:38.776Z,7.03
2022-11-16T06:56:42.310Z,7.02
2022-11-16T06:59:47.313Z,7.01
2022-11-16T07:02:50.946Z,7.00
2022-11-16T07:05:55.339Z,6.94
2022-11-16T07:08:58.992Z,6.96
2022-11-16T07:12:02.621Z,6.87
2022-11-16T07:15:09.217Z,6.84
2022-11-16T07:18:13.255Z,6.85
2022-11-16T07:21:18.628Z,6.86
2022-11-16T07:24:22.213Z,6.84
2022-11-16T07:27:25.874Z,6.82
2022-11-16T07:30:30.927Z,6.77
2022-11-16T07:33:34.916Z,6.69
2022-11-16T07:36:38.469Z,6.65
2022-11-16T07:39:42.963Z,6.65
2022-11-16T07:42:46.626Z,6.60
2022-11-16T07:45:53.154Z,6.61
2022-11-16T07:48:57.961Z,6.60
2022-11-16T07:52:03.028Z,6.60
2022-11-16T07:55:07.393Z,6.52
2022-11-16T07:58:10.983Z,6.55
2022-11-16T08:01:18.693Z,6.55
2022-11-16T08:04:22.538Z,6.60
2022-11-16T08:07:26.379Z,6.56
2022-11-16T08:10:31.497Z,6.54
2022-11-16T08:13:38.053Z,6.55
2022-11-16T08:16:43.438Z,6.51
2022-11-16T08:19:47.078Z,6.55
2022-11-16T08:22:50.864Z,6.52
2022-11-16T08:25:58.748Z,6.50
2022-11-16T08:29:02.343Z,6.48
2022-11-16T08:32:07.706Z,6.51
2022-11-16T08:35:11.664Z,6.57
2022-11-16T08:38:15.239Z,6.50
2022-11-16T08:41:20.483Z,6.53
2022-11-16T08:44:24.555Z,6.57
2022-11-16T08:47:29.486Z,6.53
2022-11-16T08:50:44.128Z,6.52
2022-11-16T08:53:58.129Z,6.52
2022-11-16T08:57:01.899Z,6.46
2022-11-16T09:00:06.730Z,6.53
2022-11-16T09:03:11.690Z,6.47
2022-11-16T09:06:16.546Z,6.45
2022-11-16T09:09:20.530Z,6.40
2022-11-16T09:12:24.452Z,6.45
2022-11-16T09:15:41.006Z,6.47
2022-11-16T09:18:47.246Z,6.45
2022-11-16T09:21:50.937Z,6.42
2022-11-16T09:24:54.505Z,6.45
2022-11-16T09:27:58.033Z,6.38
2022-11-16T09:31:04.109Z,6.38
2022-11-16T09:34:10.653Z,6.34
2022-11-16T09:37:15.682Z,6.31
2022-11-16T09:40:19.760Z,6.37
2022-11-16T09:43:45.373Z,6.36
2022-11-16T09:46:56.226Z,6.33
2022-11-16T09:50:05.405Z,6.40
2022-11-16T09:53:33.583Z,6.40
2022-11-16T09:56:44.063Z,6.35
2022-11-16T09:59:53.055Z,6.32
2022-11-16T10:03:06.732Z,6.35
2022-11-16T10:06:23.335Z,6.34
2022-11-16T10:09:27.858Z,6.28
2022-11-16T10:12:43.947Z,6.27
2022-11-16T10:16:03.181Z,6.28
2022-11-16T10:19:23.474Z,6.22
2022-11-16T10:22:46.950Z,6.24
2022-11-16T10:25:59.281Z,6.22
2022-11-16T10:29:33.747Z,6.18
2022-11-16T10:32:46.684Z,6.17
2022-11-16T10:35:54.186Z,6.18
2022-11-16T10:39:02.630Z,6.18
2022-11-16T10:42:13.027Z,6.20
2022-11-16T10:45:23.366Z,6.22
2022-11-16T10:48:39.635Z,6.22
2022-11-16T10:51:43.921Z,6.20
2022-11-16T10:54:48.831Z,6.20
2022-11-16T10:57:57.858Z,6.22
2022-11-16T11:01:01.516Z,6.28
2022-11-16T11:04:20.885Z,6.21
2022-11-16T11:07:31.839Z,6.22
2022-11-16T11:10:39.699Z,6.12
2022-11-16T11:13:43.359Z,6.20
2022-11-16T11:16:46.874Z,6.27
2022-11-16T11:20:00.650Z,6.26
2022-11-16T11:23:14.933Z,6.25
2022-11-16T11:26:36.977Z,6.25
2022-11-16T11:29:44.321Z,6.17
2022-11-16T11:32:49.753Z,6.19
2022-11-16T11:36:06.721Z,6.16
2022-11-16T11:39:30.861Z,6.20
2022-11-16T11:42:36.059Z,6.23
2022-11-16T11:45:52.892Z,6.27
2022-11-16T11:49:04.687Z,6.36
2022-11-16T11:52:19.457Z,6.27
2022-11-16T11:55:23.268Z,6.22
2022-11-16T11:58:34.290Z,6.24
2022-11-16T12:02:03.538Z,6.17
2022-11-16T12:05:43.988Z,6.13
2022-11-16T12:09:20.414Z,6.11
2022-11-16T12:12:41.073Z,6.07
2022-11-16T12:16:04.970Z,6.12
2022-11-16T12:20:09.174Z,6.12
2022-11-16T12:24:01.188Z,6.10
2022-11-16T12:27:26.990Z,6.11
2022-11-16T12:30:39.485Z,6.04
2022-11-16T12:33:58.586Z,5.99
2022-11-16T12:37:14.828Z,5.96
2022-11-16T12:40:36.911Z,6.01
2022-11-16T12:43:50.867Z,5.96
2022-11-16T12:47:07.376Z,6.02
2022-11-16T12:50:39.111Z,6.03
2022-11-16T12:54:16.203Z,5.99
2022-11-16T12:57:30.329Z,5.94
2022-11-16T13:00:51.331Z,5.96
2022-11-16T13:04:01.823Z,5.89
2022-11-16T13:07:18.273Z,5.90
2022-11-16T13:10:28.023Z,5.89
2022-11-16T13:13:38.609Z,5.87
2022-11-16T13:16:43.236Z,5.88
2022-11-16T13:20:02.019Z,5.84
2022-11-16T13:23:15.508Z,5.82
2022-11-16T13:26:36.478Z,5.79
2022-11-16T13:29:51.302Z,5.76
2022-11-16T13:33:20.176Z,5.76
2022-11-16T13:36:47.871Z,5.74
2022-11-16T13:40:24.727Z,5.71
2022-11-16T13:43:28.306Z,5.74
2022-11-16T13:46:55.890Z,5.74
2022-11-16T13:50:03.621Z,5.75
2022-11-16T13:56:52.621Z,5.78
2022-11-16T14:00:12.590Z,5.74
2022-11-16T14:03:38.275Z,5.67
2022-11-16T14:06:59.737Z,5.73
2022-11-16T14:10:08.136Z,5.73
2022-11-16T14:13:40.079Z,5.72
2022-11-16T14:16:50.068Z,5.66
2022-11-16T14:19:57.138Z,5.69
2022-11-16T14:23:22.837Z,5.66
2022-11-16T14:26:49.652Z,5.57
2022-11-16T14:30:04.758Z,5.59
2022-11-16T14:33:25.063Z,5.55
2022-11-16T14:36:40.929Z,5.59
2022-11-16T14:39:45.722Z,5.56
2022-11-16T14:43:15.377Z,5.54
2022-11-16T14:46:24.234Z,5.53
2022-11-16T14:49:30.346Z,5.50
2022-11-16T14:52:41.258Z,5.50
2022-11-16T14:55:46.684Z,5.54
2022-11-16T14:58:56.599Z,5.49
2022-11-16T15:02:11.878Z,5.50
2022-11-16T15:05:18.948Z,5.45
2022-11-16T15:08:29.645Z,5.43
2022-11-16T15:11:56.268Z,5.49
2022-11-16T15:15:07.333Z,5.51
2022-11-16T15:18:19.436Z,5.48
2022-11-16T15:21:24.763Z,5.44
2022-11-16T15:24:32.031Z,5.45
2022-11-16T15:27:39.840Z,5.44
2022-11-16T15:30:47.392Z,5.41
2022-11-16T15:33:53.477Z,5.36
2022-11-16T15:36:57.129Z,5.40
2022-11-16T15:40:03.782Z,5.45
2022-11-16T15:43:08.941Z,5.42
2022-11-16T15:46:16.263Z,5.46
2022-11-16T15:49:30.770Z,5.43
2022-11-16T15:52:54.723Z,5.46
2022-11-16T15:55:59.796Z,5.43
2022-11-16T15:59:14.694Z,5.45
2022-11-16T16:02:23.297Z,5.46
2022-11-16T16:05:38.160Z,5.43
2022-11-16T16:08:42.075Z,5.44
2022-11-16T16:11:45.993Z,5.47
2022-11-16T16:14:52.307Z,5.46
2022-11-16T16:17:56.664Z,5.46
2022-11-16T16:21:04.570Z,5.47
2022-11-16T16:24:32.452Z,5.44
2022-11-16T16:27:41.331Z,5.42
2022-11-16T16:30:45.053Z,5.49
2022-11-16T16:33:48.792Z,5.49
2022-11-16T16:36:53.906Z,5.50
2022-11-16T16:39:58.664Z,5.51
2022-11-16T16:43:02.502Z,5.45
2022-11-16T16:46:07.237Z,5.48
2022-11-16T16:49:10.877Z,5.46
2022-11-16T16:52:16.664Z,5.51
2022-11-16T16:55:20.832Z,5.50
2022-11-16T16:58:24.643Z,5.45
2022-11-16T17:01:29.232Z,5.47
2022-11-16T17:04:34.402Z,5.46
2022-11-16T17:07:40.762Z,5.46
2022-11-16T17:10:44.394Z,5.47
2022-11-16T17:13:48.318Z,5.47
2022-11-16T17:16:52.568Z,5.45
2022-11-16T17:19:56.990Z,5.50
2022-11-16T17:23:03.210Z,5.46
2022-11-16T17:26:10.157Z,5.47
2022-11-16T17:29:14.187Z,5.47
2022-11-16T17:32:18.904Z,5.46
2022-11-16T17:35:23.665Z,5.47
2022-11-16T17:38:29.012Z,5.46
2022-11-16T17:41:32.646Z,5.55
2022-11-16T17:44:36.314Z,5.52
2022-11-16T17:47:40.944Z,5.48
2022-11-16T17:50:49.066Z,5.51
2022-11-16T17:53:54.717Z,5.46
2022-11-16T17:56:58.440Z,5.52
2022-11-16T18:00:02.172Z,5.51
2022-11-16T18:03:05.927Z,5.54
2022-11-16T18:06:13.487Z,5.57
2022-11-16T18:09:18.875Z,5.58
2022-11-16T18:12:22.765Z,5.53
2022-11-16T18:15:29.934Z,5.58
2022-11-16T18:18:34.007Z,5.57
2022-11-16T18:21:41.971Z,5.54
2022-11-16T18:24:47.615Z,5.61
2022-11-16T18:27:54.074Z,5.58
2022-11-16T18:31:05.219Z,5.57
2022-11-16T18:34:09.244Z,5.60
2022-11-16T18:37:12.846Z,5.55
2022-11-16T18:40:18.189Z,5.40
2022-11-16T18:43:21.785Z,5.38
2022-11-16T18:46:27.679Z,5.36
2022-11-16T18:49:31.282Z,5.32
2022-11-16T18:52:34.888Z,5.36
2022-11-16T18:55:39.794Z,5.30
2022-11-16T18:58:50.207Z,5.30
2022-11-16T19:01:55.347Z,5.32
2022-11-16T19:04:58.955Z,5.24
2022-11-16T19:08:02.516Z,5.18
2022-11-16T19:11:09.394Z,5.17
2022-11-16T19:14:13.499Z,5.17
2022-11-16T19:17:18.728Z,5.18
2022-11-16T19:20:22.379Z,5.20
2022-11-16T19:23:25.941Z,5.13
2022-11-16T19:26:31.113Z,5.18
2022-11-16T19:29:34.687Z,5.18
2022-11-16T19:32:39.707Z,5.21
2022-11-16T19:35:43.213Z,5.14
2022-11-16T19:38:49.637Z,5.16
2022-11-16T19:41:54.789Z,5.20
2022-11-16T19:44:58.488Z,5.16
2022-11-16T19:48:02.376Z,5.12
2022-11-16T19:51:08.246Z,5.21
2022-11-16T19:54:14.061Z,5.18
2022-11-16T19:57:20.840Z,5.15
2022-11-16T20:00:24.895Z,5.23
2022-11-16T20:03:28.817Z,5.12
2022-11-16T20:06:35.166Z,5.08
2022-11-16T20:09:38.965Z,5.12
2022-11-16T20:12:44.226Z,5.13
2022-11-16T20:15:47.757Z,5.10
2022-11-16T20:18:53.591Z,5.11
2022-11-16T20:21:59.532Z,5.13
2022-11-16T20:25:03.129Z,5.13
2022-11-16T20:28:08.569Z,5.15
2022-11-16T20:31:15.778Z,5.15
2022-11-16T20:34:20.815Z,5.13
2022-11-16T20:37:24.622Z,5.17
2022-11-16T20:40:28.270Z,5.13
2022-11-16T20:43:33.822Z,5.16
2022-11-16T20:46:38.558Z,5.12
2022-11-16T20:49:42.065Z,5.12
2022-11-16T20:52:49.972Z,5.17
2022-11-16T20:55:57.469Z,5.13
2022-11-16T20:59:02.722Z,5.15
2022-11-16T21:02:06.334Z,5.16
2022-11-16T21:05:10.881Z,5.09
2022-11-16T21:08:14.946Z,5.08
2022-11-16T21:11:21.377Z,5.16
2022-11-16T21:14:25.915Z,5.16
2022-11-16T21:17:29.499Z,5.18
2022-11-16T21:20:33.028Z,5.22
2022-11-16T21:23:39.085Z,5.21
2022-11-16T21:26:42.708Z,5.23
2022-11-16T21:29:47.812Z,5.25
2022-11-16T21:32:51.471Z,5.25
2022-11-16T21:35:56.075Z,5.25
2022-11-16T21:39:00.282Z,5.32
2022-11-16T21:42:04.205Z,5.31
2022-11-16T21:45:11.295Z,5.34
2022-11-16T21:48:15.842Z,5.32
2022-11-16T21:51:22.305Z,5.29
2022-11-16T21:54:45.985Z,5.37
2022-11-16T21:57:49.932Z,5.31
2022-11-16T22:00:57.870Z,5.29
2022-11-16T22:04:18.708Z,5.35
2022-11-16T22:07:36.696Z,5.36
2022-11-16T22:10:40.739Z,5.35
2022-11-16T22:13:44.992Z,5.31
2022-11-16T22:16:49.916Z,5.35
2022-11-16T22:19:53.526Z,5.32
2022-11-16T22:22:57.085Z,5.30
2022-11-16T22:26:04.039Z,5.33
2022-11-16T22:29:07.930Z,5.29
2022-11-16T22:32:12.890Z,5.28
2022-11-16T22:35:16.589Z,5.33
2022-11-16T22:38:20.206Z,5.28
2022-11-16T22:41:23.810Z,5.32
2022-11-16T22:44:27.486Z,5.31
2022-11-16T22:47:33.429Z,5.32
2022-11-16T22:50:37.039Z,5.28
2022-11-16T22:53:40.553Z,5.26
2022-11-16T22:56:45.035Z,5.26
2022-11-16T22:59:48.595Z,5.28
2022-11-16T23:02:53.747Z,5.27
2022-11-16T23:05:57.456Z,5.26
2022-11-16T23:09:01.363Z,5.26
2022-11-16T23:12:23.086Z,5.24
2022-11-16T23:15:44.308Z,5.28
2022-11-16T23:18:49.229Z,5.22
2022-11-16T23:22:10.430Z,5.22
2022-11-16T23:25:31.875Z,5.22
2022-11-16T23:28:35.844Z,5.19
2022-11-16T23:31:39.736Z,5.25
2022-11-16T23:34:44.764Z,5.20
2022-11-16T23:37:53.578Z,5.19
2022-11-16T23:40:57.136Z,5.20
2022-11-16T23:43:59.737Z,5.17
2022-11-16T23:47:03.347Z,5.14
2022-11-16T23:50:09.419Z,5.13
2022-11-16T23:53:13.898Z,5.07
2022-11-16T23:56:17.719Z,5.11
2022-11-16T23:59:21.309Z,5.10
